Time;durP1;ratioP1;P1;durP2;ratioP2;P2;SDS_P1;SDS_P2;PMS_P1;PMS_P2;Temp;Humidity;BMP_temperature;BMP_pressure;BME280_temperature;BME280_humidity;BME280_pressure;Samples;Min_cycle;Max_cycle;Signal;HPM_P1;HPM_P2
2022/12/28 00:03:44;;;;;;;0.32;0.32;;;;;;;4.52;nan;101358.44;10593060;27;20502;-78
2022/12/28 00:08:46;;;;;;;1.00;0.63;;;;;;;4.54;nan;101343.88;10580061;27;20460;-77
2022/12/28 00:13:47;;;;;;;0.25;0.25;;;;;;;4.54;nan;101330.91;10575285;27;20031;-78
2022/12/28 00:18:50;;;;;;;0.45;0.45;;;;;;;4.54;nan;101308.44;10573193;27;20393;-78
2022/12/28 00:23:53;;;;;;;0.10;0.10;;;;;;;4.58;nan;101292.22;10565781;27;20075;-79
2022/12/28 00:28:58;;;;;;;0.52;0.52;;;;;;;4.57;nan;101305.13;10601405;27;20039;-78
2022/12/28 00:34:05;;;;;;;1.95;0.75;;;;;;;4.57;nan;101297.34;10551878;27;20067;-79
2022/12/28 00:39:07;;;;;;;0.30;0.30;;;;;;;4.55;nan;101296.38;10586243;27;20130;-78
2022/12/28 00:44:08;;;;;;;0.30;0.20;;;;;;;4.55;nan;101301.56;10560646;27;20527;-78
2022/12/28 00:49:10;;;;;;;0.32;0.30;;;;;;;4.54;nan;101302.38;10595525;27;20130;-79
2022/12/28 00:54:12;;;;;;;0.73;0.65;;;;;;;4.55;nan;101301.56;10610888;27;20108;-79
2022/12/28 00:59:14;;;;;;;0.52;0.25;;;;;;;4.58;nan;101296.53;10575249;27;20047;-79
2022/12/28 01:04:16;;;;;;;0.10;0.10;;;;;;;4.51;nan;101278.88;10578182;27;20071;-78
2022/12/28 01:09:17;;;;;;;1.45;0.73;;;;;;;4.46;nan;101273.47;10583896;27;20051;-79
2022/12/28 01:14:20;;;;;;;0.50;0.50;;;;;;;4.42;nan;101263.75;10581797;27;20039;-78
2022/12/28 01:19:22;;;;;;;1.70;0.60;;;;;;;4.28;nan;101260.50;10572804;27;20402;-78
2022/12/28 01:24:23;;;;;;;0.25;0.25;;;;;;;4.23;nan;101256.75;10558135;28;20055;-79
2022/12/28 01:29:25;;;;;;;0.25;0.25;;;;;;;4.19;nan;101235.00;10556335;27;20047;-78
2022/12/28 01:34:26;;;;;;;0.20;0.20;;;;;;;4.11;nan;101218.16;10574718;27;20043;-78
2022/12/28 01:39:28;;;;;;;0.20;0.20;;;;;;;4.05;nan;101200.59;10556736;27;20096;-78
2022/12/28 01:44:38;;;;;;;0.73;0.52;;;;;;;4.00;nan;101202.06;10591761;27;20778;-79
2022/12/28 01:50:02;;;;;;;0.70;0.45;;;;;;;3.97;nan;101182.88;10596609;27;20546;-79
2022/12/28 01:55:15;;;;;;;1.75;0.52;;;;;;;3.96;nan;101173.31;10592506;27;20514;-80
2022/12/28 02:00:17;;;;;;;1.08;0.38;;;;;;;3.95;nan;101154.31;10533037;28;20580;-79
2022/12/28 02:05:23;;;;;;;0.60;0.50;;;;;;;3.91;nan;101139.41;10591014;27;20070;-78
2022/12/28 02:10:26;;;;;;;0.75;0.70;;;;;;;3.91;nan;101133.34;10555073;27;20052;-79
2022/12/28 02:15:43;;;;;;;1.52;0.65;;;;;;;3.87;nan;101119.34;10580054;27;20517;-80
2022/12/28 02:21:02;;;;;;;0.63;0.52;;;;;;;3.84;nan;101101.97;10552358;28;20046;-80
2022/12/28 02:26:28;;;;;;;0.45;0.38;;;;;;;3.81;nan;101090.56;10563771;28;20051;-79
2022/12/28 02:31:49;;;;;;;0.10;0.10;;;;;;;3.77;nan;101073.06;10547326;28;20102;-80
2022/12/28 02:37:00;;;;;;;0.90;0.70;;;;;;;3.72;nan;101045.28;10580162;27;20099;-80
2022/12/28 02:42:03;;;;;;;0.15;0.15;;;;;;;3.73;nan;101030.59;10550429;28;20050;-80
2022/12/28 02:53:13;;;;;;;0.32;0.32;;;;;;;3.76;nan;101003.97;10581205;27;20054;-80
2022/12/28 02:58:55;;;;;;;0.43;0.43;;;;;;;3.78;nan;100981.59;10547750;27;20492;-79
2022/12/28 03:04:34;;;;;;;1.25;0.70;;;;;;;3.82;nan;100980.94;10573833;28;20513;-81
2022/12/28 03:09:40;;;;;;;1.55;0.50;;;;;;;3.79;nan;100976.50;10529542;28;20101;-81
2022/12/28 03:14:54;;;;;;;1.27;0.95;;;;;;;3.80;nan;100967.91;10555007;28;20035;-80
2022/12/28 03:31:07;;;;;;;0.20;0.20;;;;;;;3.81;nan;100942.91;10552295;28;20041;-80
2022/12/28 03:36:28;;;;;;;0.25;0.25;;;;;;;3.83;nan;100933.50;10545078;28;20218;-82
2022/12/28 03:41:41;;;;;;;0.35;0.32;;;;;;;3.77;nan;100918.56;10553040;28;20039;-82
2022/12/28 03:47:07;;;;;;;0.25;0.25;;;;;;;3.78;nan;100901.31;10552083;28;20542;-81
2022/12/28 03:52:10;;;;;;;1.45;0.40;;;;;;;3.80;nan;100894.47;10552029;28;20055;-81
2022/12/28 03:57:15;;;;;;;0.40;0.40;;;;;;;3.77;nan;100877.13;10544472;28;20051;-83
2022/12/28 04:02:19;;;;;;;1.48;0.75;;;;;;;3.82;nan;100859.19;10568628;28;20134;-82
2022/12/28 04:07:21;;;;;;;0.93;0.50;;;;;;;3.84;nan;100842.00;10561591;28;20032;-82
2022/12/28 04:12:22;;;;;;;0.80;0.80;;;;;;;3.89;nan;100843.13;10545809;28;20039;-81
2022/12/28 04:17:45;;;;;;;0.75;0.75;;;;;;;3.94;nan;100817.41;10548864;28;20032;-82
2022/12/28 04:22:47;;;;;;;1.63;1.23;;;;;;;3.93;nan;100811.31;10551642;28;20589;-82
2022/12/28 04:27:48;;;;;;;1.23;0.98;;;;;;;3.94;nan;100805.34;10475751;28;1165549;-82
2022/12/28 04:33:26;;;;;;;0.45;0.45;;;;;;;4.01;nan;100801.34;10563011;27;20039;-82
2022/12/28 04:38:27;;;;;;;2.53;1.85;;;;;;;4.00;nan;100791.78;10552535;28;20057;-81
2022/12/28 04:43:29;;;;;;;0.30;0.30;;;;;;;4.04;nan;100786.78;10571254;28;20039;-82
2022/12/28 04:48:31;;;;;;;0.90;0.47;;;;;;;4.07;nan;100781.75;10556709;27;20044;-83
2022/12/28 04:53:37;;;;;;;0.82;0.68;;;;;;;4.14;nan;100763.84;10552792;28;20055;-82
2022/12/28 04:58:39;;;;;;;1.45;1.00;;;;;;;4.21;nan;100766.78;10554021;27;20043;-82
2022/12/28 05:03:43;;;;;;;0.65;0.55;;;;;;;4.29;nan;100759.31;10577023;27;20039;-82
2022/12/28 05:08:48;;;;;;;1.20;0.80;;;;;;;4.37;nan;100744.09;10572291;28;20038;-82
2022/12/28 05:13:50;;;;;;;0.70;0.57;;;;;;;4.48;nan;100750.59;10553670;28;20097;-82
2022/12/28 05:18:54;;;;;;;1.48;0.85;;;;;;;4.55;nan;100738.78;10552790;27;20047;-82
2022/12/28 05:23:56;;;;;;;1.05;0.93;;;;;;;4.65;nan;100742.63;10574019;27;20032;-81
2022/12/28 05:28:58;;;;;;;0.47;0.47;;;;;;;4.73;nan;100736.94;10575649;28;20073;-81
2022/12/28 05:34:00;;;;;;;0.47;0.47;;;;;;;4.83;nan;100734.69;10574826;27;20051;-81
2022/12/28 05:39:03;;;;;;;1.52;0.77;;;;;;;4.89;nan;100738.41;10570309;27;20100;-81
2022/12/28 05:44:04;;;;;;;0.75;0.30;;;;;;;4.96;nan;100721.38;10567625;28;20051;-81
2022/12/28 05:49:09;;;;;;;0.20;0.20;;;;;;;5.03;nan;100738.97;10547701;28;20518;-80
2022/12/28 05:54:10;;;;;;;0.50;0.50;;;;;;;5.09;nan;100714.97;10549069;28;20097;-81
2022/12/28 05:59:12;;;;;;;0.13;0.13;;;;;;;5.15;nan;100720.38;10546940;28;20061;-81
2022/12/28 06:04:17;;;;;;;1.05;0.60;;;;;;;5.19;nan;100713.59;10565748;28;20161;-82
2022/12/28 06:09:19;;;;;;;0.38;0.25;;;;;;;5.23;nan;100707.69;10556494;28;20655;-81
2022/12/28 06:14:21;;;;;;;0.70;0.55;;;;;;;5.27;nan;100705.25;10546624;28;20516;-80
2022/12/28 06:19:22;;;;;;;0.30;0.30;;;;;;;5.28;nan;100693.16;10565324;28;20517;-81
2022/12/28 06:24:24;;;;;;;0.98;0.65;;;;;;;5.36;nan;100693.44;10574356;28;20067;-82
2022/12/28 06:29:25;;;;;;;0.28;0.28;;;;;;;5.37;nan;100677.91;10564592;28;20047;-81
2022/12/28 06:34:27;;;;;;;0.85;0.73;;;;;;;5.42;nan;100684.16;10564189;28;20128;-82
2022/12/28 06:39:29;;;;;;;0.63;0.52;;;;;;;5.49;nan;100677.47;10565265;28;20517;-81
2022/12/28 06:44:30;;;;;;;0.28;0.25;;;;;;;5.54;nan;100675.03;10564745;28;20079;-81
2022/12/28 06:49:32;;;;;;;0.22;0.22;;;;;;;5.62;nan;100668.41;10545766;28;20649;-81
2022/12/28 06:54:33;;;;;;;2.97;1.05;;;;;;;5.70;nan;100663.47;10545973;28;20112;-82
2022/12/28 06:59:35;;;;;;;0.98;0.30;;;;;;;5.73;nan;100659.25;10553886;28;20055;-82
2022/12/28 07:04:37;;;;;;;0.70;0.45;;;;;;;5.76;nan;100651.56;10564990;28;20846;-81
2022/12/28 07:09:38;;;;;;;0.40;0.40;;;;;;;5.81;nan;100669.91;10563511;28;20124;-82
2022/12/28 07:14:40;;;;;;;0.50;0.50;;;;;;;5.90;nan;100661.56;10545207;28;20040;-81
2022/12/28 07:19:41;;;;;;;0.90;0.70;;;;;;;5.94;nan;100674.72;10565055;28;20464;-81
2022/12/28 07:24:43;;;;;;;0.90;0.70;;;;;;;5.98;nan;100671.41;10571162;28;20515;-82
2022/12/28 07:29:44;;;;;;;0.30;0.30;;;;;;;5.98;nan;100687.03;10572248;28;20047;-82
2022/12/28 07:34:46;;;;;;;0.60;0.60;;;;;;;6.00;nan;100676.66;10570795;28;20075;-82
2022/12/28 07:39:48;;;;;;;1.05;0.50;;;;;;;6.02;nan;100688.03;10571375;28;20506;-83
2022/12/28 07:44:49;;;;;;;0.90;0.68;;;;;;;6.08;nan;100683.03;10578327;27;20047;-82
2022/12/28 07:49:51;;;;;;;0.20;0.20;;;;;;;6.14;nan;100683.22;10570763;28;20555;-82
2022/12/28 07:54:52;;;;;;;0.20;0.20;;;;;;;6.16;nan;100676.34;10555652;27;20115;-81
2022/12/28 07:59:54;;;;;;;0.35;0.35;;;;;;;6.23;nan;100682.66;10574201;27;20660;-82
2022/12/28 08:04:56;;;;;;;0.40;0.40;;;;;;;6.31;nan;100686.38;10569146;28;20067;-80
2022/12/28 08:09:57;;;;;;;0.38;0.38;;;;;;;6.36;nan;100684.81;10569678;28;20112;-80
2022/12/28 08:15:00;;;;;;;0.38;0.30;;;;;;;6.42;nan;100691.91;10552923;27;20097;-80
2022/12/28 08:20:02;;;;;;;1.08;0.70;;;;;;;6.48;nan;100673.91;10567071;27;20086;-80
2022/12/28 08:25:03;;;;;;;0.50;0.50;;;;;;;6.54;nan;100683.63;10584686;27;20066;-80
2022/12/28 08:30:06;;;;;;;1.35;0.75;;;;;;;6.58;nan;100689.84;10555945;27;20047;-80
2022/12/28 08:35:07;;;;;;;0.20;0.20;;;;;;;6.59;nan;100668.16;10594537;27;20702;-80
2022/12/28 08:40:10;;;;;;;1.15;0.80;;;;;;;6.62;nan;100682.16;10594263;27;20043;-79
2022/12/28 08:45:11;;;;;;;1.60;0.93;;;;;;;6.66;nan;100668.41;10558337;27;20448;-80
2022/12/28 08:50:13;;;;;;;0.63;0.63;;;;;;;6.71;nan;100672.03;10585379;27;20092;-78
2022/12/28 08:55:18;;;;;;;1.17;0.65;;;;;;;6.78;nan;100667.91;10561457;27;20620;-78
2022/12/28 09:00:20;;;;;;;0.38;0.30;;;;;;;6.88;nan;100658.66;10587089;27;20050;-81
2022/12/28 09:05:21;;;;;;;1.25;0.82;;;;;;;6.99;nan;100659.84;10596817;27;20084;-80
2022/12/28 09:10:23;;;;;;;4.68;1.40;;;;;;;7.05;nan;100683.47;10586164;27;20035;-80
2022/12/28 09:15:24;;;;;;;1.23;0.73;;;;;;;7.12;nan;100684.53;10593360;27;20147;-80
2022/12/28 09:20:26;;;;;;;0.95;0.68;;;;;;;7.14;nan;100690.66;10601652;27;20460;-81
2022/12/28 09:25:28;;;;;;;3.30;0.55;;;;;;;7.18;nan;100692.53;10567870;27;20047;-81
2022/12/28 09:30:29;;;;;;;0.93;0.68;;;;;;;7.19;nan;100699.50;10551574;27;20043;-81
2022/12/28 09:35:31;;;;;;;1.48;0.82;;;;;;;7.27;nan;100699.72;10593241;27;20043;-80
2022/12/28 09:40:36;;;;;;;0.50;0.50;;;;;;;7.32;nan;100682.50;10561020;27;20482;-82
2022/12/28 09:45:41;;;;;;;1.35;0.85;;;;;;;7.39;nan;100683.56;10583029;27;20035;-81
2022/12/28 09:50:43;;;;;;;0.80;0.73;;;;;;;7.44;nan;100690.66;10571528;28;20466;-80
2022/12/28 09:55:53;;;;;;;3.13;1.35;;;;;;;7.46;nan;100676.81;10595028;27;20035;-81
2022/12/28 10:00:58;;;;;;;0.25;0.25;;;;;;;7.55;nan;100675.34;10575905;27;20349;-81
2022/12/28 10:06:00;;;;;;;1.50;0.75;;;;;;;7.49;nan;100679.50;10610046;27;20082;-80
2022/12/28 10:11:04;;;;;;;0.98;0.82;;;;;;;7.42;nan;100671.50;10620522;27;20047;-81
2022/12/28 10:16:14;;;;;;;0.43;0.43;;;;;;;7.39;nan;100680.97;10634574;27;20039;-80
2022/12/28 10:21:19;;;;;;;1.25;0.73;;;;;;;7.36;nan;100665.25;10583270;28;20052;-81
2022/12/28 10:26:20;;;;;;;0.63;0.52;;;;;;;7.36;nan;100667.88;10581057;28;20085;-81
2022/12/28 10:31:32;;;;;;;1.10;0.50;;;;;;;7.40;nan;100670.59;10596037;28;20044;-81
2022/12/28 10:36:34;;;;;;;0.60;0.45;;;;;;;7.41;nan;100667.13;10594057;28;20104;-81
2022/12/28 10:41:37;;;;;;;0.10;0.10;;;;;;;7.50;nan;100655.22;10559138;28;20050;-80
2022/12/28 10:46:59;;;;;;;0.47;0.47;;;;;;;7.55;nan;100667.53;10544002;28;20093;-82
2022/12/28 10:52:20;;;;;;;0.40;0.40;;;;;;;7.58;nan;100651.97;10584212;28;20072;-81
2022/12/28 10:57:30;;;;;;;1.85;0.70;;;;;;;7.65;nan;100652.16;10597153;27;20114;-81
2022/12/28 11:02:32;;;;;;;0.38;0.38;;;;;;;7.71;nan;100639.28;10574462;27;20057;-82
2022/12/28 11:07:37;;;;;;;0.50;0.45;;;;;;;7.74;nan;100642.81;10583820;27;20039;-82
2022/12/28 11:12:45;;;;;;;0.82;0.52;;;;;;;7.82;nan;100644.75;10592481;27;20703;-85
2022/12/28 11:17:58;;;;;;;0.22;0.22;;;;;;;7.90;nan;100636.28;10557229;28;20040;-82
2022/12/28 11:23:04;;;;;;;0.93;0.77;;;;;;;7.94;nan;100635.53;10601323;27;20044;-80
2022/12/28 11:28:15;;;;;;;0.30;0.30;;;;;;;7.97;nan;100643.44;10573774;27;20493;-81
2022/12/28 11:33:22;;;;;;;0.47;0.40;;;;;;;7.99;nan;100645.19;10582555;27;20092;-81
2022/12/28 11:38:45;;;;;;;0.30;0.30;;;;;;;8.00;nan;100632.22;10576411;27;20052;-82
2022/12/28 11:43:55;;;;;;;0.88;0.65;;;;;;;8.06;nan;100628.84;10564497;27;20096;-81
2022/12/28 11:48:59;;;;;;;0.30;0.30;;;;;;;8.10;nan;100617.66;10564362;27;20081;-82
2022/12/28 11:54:01;;;;;;;0.68;0.57;;;;;;;8.07;nan;100621.06;10587804;27;20048;-82
2022/12/28 11:59:18;;;;;;;1.00;0.50;;;;;;;8.08;nan;100616.75;10556265;28;20049;-82
2022/12/28 12:04:30;;;;;;;0.10;0.10;;;;;;;8.11;nan;100609.00;10575616;28;20130;-80
2022/12/28 12:09:37;;;;;;;1.65;0.63;;;;;;;8.15;nan;100616.03;10560403;28;20043;-82
2022/12/28 12:14:43;;;;;;;0.15;0.13;;;;;;;8.11;nan;100616.81;10580115;28;20035;-80
2022/12/28 12:19:52;;;;;;;0.43;0.35;;;;;;;8.09;nan;100597.63;10572104;28;20089;-81
2022/12/28 12:25:25;;;;;;;0.40;0.20;;;;;;;8.05;nan;100599.28;10578937;28;20043;-81
2022/12/28 12:30:28;;;;;;;0.20;0.20;;;;;;;8.02;nan;100593.13;10562089;28;20676;-82
2022/12/28 12:35:40;;;;;;;0.80;0.40;;;;;;;8.00;nan;100582.66;10563177;28;20493;-82
2022/12/28 12:41:04;;;;;;;0.40;0.28;;;;;;;7.93;nan;100572.94;10580114;28;20085;-82
2022/12/28 12:46:09;;;;;;;0.10;0.10;;;;;;;7.90;nan;100578.06;10561753;28;20095;-81
2022/12/28 12:51:23;;;;;;;0.20;0.20;;;;;;;7.82;nan;100559.63;10561603;28;20048;-82
2022/12/28 12:56:51;;;;;;;0.30;0.25;;;;;;;7.76;nan;100560.38;10580896;28;20495;-80
2022/12/28 13:02:22;;;;;;;1.23;0.70;;;;;;;7.74;nan;100571.59;10554866;28;20040;-82
2022/12/28 13:07:26;;;;;;;3.97;0.95;;;;;;;7.73;nan;100564.59;10560599;28;20043;-83
2022/12/28 13:12:28;;;;;;;0.43;0.43;;;;;;;7.72;nan;100558.50;10579216;28;20058;-82
2022/12/28 13:17:30;;;;;;;1.25;0.80;;;;;;;7.69;nan;100554.97;10556627;28;20489;-83
2022/12/28 13:22:32;;;;;;;0.25;0.17;;;;;;;7.72;nan;100542.00;10577275;27;20032;-84
2022/12/28 13:27:34;;;;;;;0.20;0.20;;;;;;;7.73;nan;100531.63;10557865;28;20032;-83
2022/12/28 13:32:36;;;;;;;0.28;0.28;;;;;;;7.69;nan;100537.59;10583704;27;20104;-83
2022/12/28 13:37:39;;;;;;;0.47;0.38;;;;;;;7.70;nan;100531.53;10561810;28;20106;-82
2022/12/28 13:43:20;;;;;;;0.68;0.45;;;;;;;7.67;nan;100525.34;10561913;27;20035;-82
2022/12/28 13:48:23;;;;;;;0.52;0.30;;;;;;;7.70;nan;100517.59;10573658;27;20077;-83
2022/12/28 13:53:28;;;;;;;0.20;0.20;;;;;;;7.67;nan;100520.13;10591627;27;20047;-82
2022/12/28 13:58:46;;;;;;;0.63;0.38;;;;;;;7.65;nan;100516.63;10522471;28;20440;-81
2022/12/28 14:03:48;;;;;;;0.13;0.13;;;;;;;7.68;nan;100501.06;10564423;28;20040;-82
2022/12/28 14:08:51;;;;;;;0.60;0.47;;;;;;;7.68;nan;100509.75;10570098;27;20130;-80
2022/12/28 14:13:55;;;;;;;1.00;0.80;;;;;;;7.64;nan;100496.63;10558023;28;20488;-80
2022/12/28 14:18:57;;;;;;;0.93;0.47;;;;;;;7.61;nan;100508.75;10572988;27;20051;-81
2022/12/28 14:24:04;;;;;;;1.50;1.02;;;;;;;7.64;nan;100502.72;10601418;28;20054;-80
2022/12/28 14:29:20;;;;;;;0.65;0.57;;;;;;;7.66;nan;100507.97;10571588;27;20101;-81
2022/12/28 14:34:27;;;;;;;0.95;0.55;;;;;;;7.60;nan;100496.53;10562233;27;20043;-81
2022/12/28 14:39:35;;;;;;;0.38;0.30;;;;;;;7.57;nan;100491.25;10593220;27;20587;-82
2022/12/28 14:44:39;;;;;;;0.30;0.30;;;;;;;7.57;nan;100493.88;10522887;27;20625;-80
2022/12/28 14:49:42;;;;;;;1.05;0.57;;;;;;;7.60;nan;100491.34;10577413;27;20042;-79
2022/12/28 14:54:46;;;;;;;0.88;0.50;;;;;;;7.63;nan;100494.84;10569312;27;20055;-80
2022/12/28 14:59:57;;;;;;;0.52;0.50;;;;;;;7.63;nan;100497.44;10566946;27;20430;-83
2022/12/28 15:04:59;;;;;;;1.00;0.47;;;;;;;7.65;nan;100482.75;10588215;27;20047;-81
2022/12/28 15:10:04;;;;;;;1.25;0.93;;;;;;;7.61;nan;100469.66;10602347;27;20047;-81
2022/12/28 15:15:08;;;;;;;0.40;0.30;;;;;;;7.64;nan;100465.34;10590179;27;20632;-81
2022/12/28 15:20:10;;;;;;;1.90;0.82;;;;;;;7.62;nan;100475.72;10597831;27;20506;-79
2022/12/28 15:25:12;;;;;;;0.70;0.60;;;;;;;7.59;nan;100466.09;10602673;27;22023;-81
2022/12/28 15:30:14;;;;;;;0.85;0.40;;;;;;;7.58;nan;100459.16;10590982;27;20069;-80
2022/12/28 15:35:22;;;;;;;0.63;0.60;;;;;;;7.59;nan;100453.06;10576241;27;21319;-80
2022/12/28 15:40:24;;;;;;;0.50;0.50;;;;;;;7.55;nan;100464.28;10602150;27;20035;-79
2022/12/28 15:45:25;;;;;;;0.43;0.43;;;;;;;7.55;nan;100456.47;10557637;27;20027;-82
2022/12/28 15:50:27;;;;;;;1.52;0.85;;;;;;;7.51;nan;100453.75;10563201;27;20755;-81
2022/12/28 15:55:30;;;;;;;1.50;0.52;;;;;;;7.50;nan;100454.59;10583952;27;20556;-80
2022/12/28 16:00:31;;;;;;;0.95;0.77;;;;;;;7.48;nan;100438.94;10545313;27;20092;-80
2022/12/28 16:05:35;;;;;;;0.22;0.17;;;;;;;7.48;nan;100412.88;10580112;27;20044;-80
2022/12/28 16:10:37;;;;;;;1.17;0.73;;;;;;;7.38;nan;100385.72;10552208;27;20048;-80
2022/12/28 16:15:39;;;;;;;0.60;0.55;;;;;;;7.39;nan;100340.59;10547890;27;20066;-81
2022/12/28 16:20:40;;;;;;;0.98;0.88;;;;;;;7.36;nan;100329.25;10575321;27;20101;-81
2022/12/28 16:25:49;;;;;;;1.00;0.70;;;;;;;7.38;nan;100356.19;10557135;27;20047;-80
2022/12/28 16:30:51;;;;;;;3.55;0.77;;;;;;;7.39;nan;100352.75;10553436;28;20644;-80
2022/12/28 16:35:52;;;;;;;1.50;0.77;;;;;;;7.40;nan;100336.25;10573673;28;20100;-82
2022/12/28 16:40:59;;;;;;;0.90;0.50;;;;;;;7.38;nan;100345.78;10574452;27;20039;-82
2022/12/28 16:46:05;;;;;;;0.70;0.70;;;;;;;7.37;nan;100341.41;10593745;27;20039;-81
2022/12/28 16:51:07;;;;;;;0.30;0.30;;;;;;;7.36;nan;100337.06;10578248;27;20138;-80
2022/12/28 16:56:09;;;;;;;1.80;1.15;;;;;;;7.39;nan;100327.56;10586701;27;20039;-81
2022/12/28 17:01:11;;;;;;;0.85;0.73;;;;;;;7.38;nan;100320.59;10583951;27;20047;-81
2022/12/28 17:06:13;;;;;;;2.00;0.93;;;;;;;7.36;nan;100314.47;10579738;27;20036;-82
2022/12/28 17:11:16;;;;;;;1.85;0.60;;;;;;;7.36;nan;100303.19;10568800;28;20042;-80
2022/12/28 17:16:18;;;;;;;1.13;0.73;;;;;;;7.33;nan;100298.78;10576562;27;20112;-82
2022/12/28 17:21:20;;;;;;;0.55;0.43;;;;;;;7.32;nan;100285.72;10567791;27;20043;-82
2022/12/28 17:26:23;;;;;;;0.30;0.30;;;;;;;7.34;nan;100260.59;10564945;27;20035;-81
2022/12/28 17:31:24;;;;;;;0.52;0.40;;;;;;;7.36;nan;100254.56;10578135;28;20035;-81
2022/12/28 17:36:26;;;;;;;0.20;0.20;;;;;;;7.33;nan;100251.91;10575526;28;20086;-80
2022/12/28 17:41:28;;;;;;;0.45;0.38;;;;;;;7.32;nan;100246.66;10588042;28;20057;-79
2022/12/28 17:46:31;;;;;;;0.50;0.50;;;;;;;7.36;nan;100230.25;10585545;28;20032;-80
2022/12/28 17:51:33;;;;;;;0.47;0.43;;;;;;;7.35;nan;100241.50;10585765;28;20131;-80
2022/12/28 17:56:35;;;;;;;1.80;0.73;;;;;;;7.32;nan;100229.31;10585573;28;20035;-80
2022/12/28 18:01:37;;;;;;;0.70;0.45;;;;;;;7.32;nan;100218.88;10569794;28;20613;-80
2022/12/28 18:06:39;;;;;;;0.77;0.77;;;;;;;7.30;nan;100204.97;10582515;27;20042;-78
2022/12/28 18:11:41;;;;;;;1.75;0.85;;;;;;;7.28;nan;100198.84;10562375;28;20062;-80
2022/12/28 18:16:43;;;;;;;1.70;1.13;;;;;;;7.35;nan;100182.47;10547884;28;20039;-81
2022/12/28 18:21:45;;;;;;;0.60;0.43;;;;;;;7.28;nan;100171.91;10574980;28;20031;-78
2022/12/28 18:26:46;;;;;;;0.30;0.20;;;;;;;7.25;nan;100173.63;10538568;28;20028;-78
2022/12/28 18:31:48;;;;;;;0.73;0.55;;;;;;;7.25;nan;100159.69;10559630;28;20051;-79
2022/12/28 18:36:50;;;;;;;0.32;0.25;;;;;;;7.14;nan;100151.66;10564614;28;20039;-80
2022/12/28 18:41:51;;;;;;;0.57;0.50;;;;;;;7.07;nan;100145.47;10548866;28;20036;-80
2022/12/28 18:46:53;;;;;;;0.60;0.45;;;;;;;7.05;nan;100152.34;10585474;28;20057;-80
2022/12/28 18:51:55;;;;;;;1.35;0.55;;;;;;;7.00;nan;100153.13;10522604;28;20036;-79
2022/12/28 18:56:57;;;;;;;0.65;0.30;;;;;;;6.97;nan;100133.09;10536368;28;20039;-79
2022/12/28 19:01:58;;;;;;;0.38;0.38;;;;;;;6.94;nan;100134.78;10537372;28;20044;-79
2022/12/28 19:07:10;;;;;;;0.20;0.20;;;;;;;6.92;nan;100129.53;10568365;28;20126;-80
2022/12/28 19:12:12;;;;;;;0.28;0.28;;;;;;;6.87;nan;100113.78;10576933;28;20810;-80
2022/12/28 19:17:13;;;;;;;2.80;0.65;;;;;;;6.79;nan;100097.16;10581366;28;20413;-81
2022/12/28 19:22:15;;;;;;;0.60;0.43;;;;;;;6.79;nan;100080.66;10584886;28;20047;-80
2022/12/28 19:27:17;;;;;;;0.80;0.47;;;;;;;6.77;nan;100078.03;10552914;28;20040;-80
2022/12/28 19:32:18;;;;;;;0.10;0.10;;;;;;;6.78;nan;100066.75;10536342;28;20044;-80
2022/12/28 19:37:20;;;;;;;0.30;0.30;;;;;;;6.78;nan;100048.53;10597980;27;20095;-80
2022/12/28 19:42:21;;;;;;;1.00;0.52;;;;;;;6.77;nan;100052.03;10587055;27;20043;-80
2022/12/28 19:47:23;;;;;;;1.27;0.95;;;;;;;6.73;nan;100032.84;10586732;27;20043;-80
2022/12/28 19:52:24;;;;;;;0.20;0.20;;;;;;;6.73;nan;100021.56;10589421;27;20119;-80
2022/12/28 19:57:26;;;;;;;0.63;0.63;;;;;;;6.71;nan;100011.13;10585181;28;20039;-79
2022/12/28 20:02:28;;;;;;;0.57;0.45;;;;;;;6.75;nan;100016.41;10611758;27;20048;-80
2022/12/28 20:07:29;;;;;;;0.30;0.30;;;;;;;6.79;nan;100003.47;10606764;28;20050;-79
2022/12/28 20:12:31;;;;;;;0.70;0.60;;;;;;;6.77;nan;99999.97;10611052;27;20066;-81
2022/12/28 20:17:34;;;;;;;0.22;0.22;;;;;;;6.80;nan;99999.13;10613887;27;20036;-80
2022/12/28 20:22:39;;;;;;;0.70;0.70;;;;;;;6.76;nan;99984.34;10599726;27;20061;-80
2022/12/28 20:27:40;;;;;;;0.70;0.70;;;;;;;6.74;nan;99976.50;10594083;27;20052;-79
2022/12/28 20:32:42;;;;;;;0.47;0.45;;;;;;;6.77;nan;99966.16;10592700;28;20063;-79
2022/12/28 20:37:45;;;;;;;2.28;0.60;;;;;;;6.78;nan;99959.22;10609589;27;20050;-80
2022/12/28 20:48:07;;;;;;;0.35;0.35;;;;;;;6.82;nan;99946.28;10593809;27;20043;-79
2022/12/28 20:53:09;;;;;;;0.20;0.20;;;;;;;6.85;nan;99935.94;10561740;27;20073;-80
2022/12/28 20:58:10;;;;;;;0.93;0.60;;;;;;;6.87;nan;99923.81;10571949;27;20257;-80
2022/12/28 21:03:12;;;;;;;0.28;0.28;;;;;;;6.92;nan;99920.44;10590013;27;20051;-81
2022/12/28 21:08:14;;;;;;;0.80;0.65;;;;;;;6.92;nan;99928.22;10593104;27;20102;-81
2022/12/28 21:13:16;;;;;;;0.38;0.38;;;;;;;6.94;nan;99923.94;10570912;28;20135;-80
2022/12/28 21:18:18;;;;;;;0.30;0.30;;;;;;;6.98;nan;99902.31;10586032;27;20047;-79
2022/12/28 21:23:20;;;;;;;0.60;0.35;;;;;;;7.02;nan;99915.41;10572023;27;20092;-79
2022/12/28 21:28:21;;;;;;;2.78;1.15;;;;;;;7.06;nan;99913.75;10569808;27;20035;-80
2022/12/28 21:33:23;;;;;;;0.60;0.60;;;;;;;7.08;nan;99899.03;10594096;27;20572;-81
2022/12/28 21:38:25;;;;;;;0.95;0.65;;;;;;;7.08;nan;99899.88;10574774;27;20209;-80
2022/12/28 21:43:28;;;;;;;0.50;0.43;;;;;;;7.13;nan;99896.50;10567360;27;20460;-79
2022/12/28 21:48:34;;;;;;;0.55;0.50;;;;;;;7.12;nan;99900.84;10587053;27;20062;-79
2022/12/28 21:53:36;;;;;;;1.92;1.50;;;;;;;7.12;nan;99887.81;10569709;27;20469;-80
2022/12/28 21:58:37;;;;;;;0.47;0.45;;;;;;;7.12;nan;99889.56;10559183;27;20051;-80
2022/12/28 22:14:20;;;;;;;;;;;;;;;7.16;nan;99883.53;10599231;27;20678;-81
2022/12/28 22:19:21;;;;;;;0.70;0.70;;;;;;;7.19;nan;99874.06;10571356;27;19924;-80
2022/12/28 22:24:23;;;;;;;2.17;0.93;;;;;;;7.28;nan;99878.53;10566386;27;20059;-78
2022/12/28 22:29:25;;;;;;;2.47;1.33;;;;;;;7.34;nan;99872.53;10589404;27;20036;-80
2022/12/28 22:34:26;;;;;;;0.85;0.52;;;;;;;7.40;nan;99860.50;10601725;28;20074;-80
2022/12/28 22:39:28;;;;;;;1.95;1.35;;;;;;;7.44;nan;99848.38;10570522;28;20047;-80
2022/12/28 22:44:29;;;;;;;1.48;1.00;;;;;;;7.53;nan;99850.25;10586567;28;20036;-81
2022/12/28 22:49:31;;;;;;;1.08;0.80;;;;;;;7.59;nan;99848.59;10594264;27;20111;-80
2022/12/28 22:54:33;;;;;;;1.45;0.68;;;;;;;7.66;nan;99854.78;10585177;27;20054;-80
2022/12/28 22:59:34;;;;;;;2.00;1.42;;;;;;;7.74;nan;99844.47;10618566;27;20087;-80
2022/12/28 23:04:36;;;;;;;1.73;1.08;;;;;;;7.86;nan;99839.41;10604779;27;20124;-80
2022/12/28 23:09:37;;;;;;;1.42;0.98;;;;;;;7.90;nan;99849.03;10584680;27;20039;-80
2022/12/28 23:31:00;;;;;;;2.83;1.45;;;;;;;8.12;nan;99831.91;10565523;27;20055;-79
2022/12/28 23:36:03;;;;;;;0.63;0.60;;;;;;;8.19;nan;99825.03;10564552;28;20040;-80
2022/12/28 23:46:26;;;;;;;0.52;0.52;;;;;;;8.31;nan;99809.50;10581402;28;20039;-79
2022/12/28 23:51:27;;;;;;;1.52;1.02;;;;;;;8.35;nan;99805.22;10582813;28;20250;-79
2022/12/28 23:56:29;;;;;;;;;;;;;;;8.39;nan;99791.34;10563149;28;20044;-79
